createdAt,value
2018-02-15T00:02:24.101Z,17.40
2018-02-15T00:04:53.173Z,17.40
2018-02-15T00:07:22.267Z,17.40
2018-02-15T00:09:50.441Z,17.40
2018-02-15T00:12:18.589Z,17.50
2018-02-15T00:14:46.753Z,17.50
2018-02-15T00:17:14.943Z,17.50
2018-02-15T00:19:43.146Z,17.50
2018-02-15T00:22:11.411Z,17.40
2018-02-15T00:24:39.584Z,17.50
2018-02-15T00:27:07.810Z,17.50
2018-02-15T00:29:35.968Z,17.40
2018-02-15T00:32:05.048Z,17.40
2018-02-15T00:34:34.881Z,17.40
2018-02-15T00:37:03.026Z,17.40
2018-02-15T00:39:31.182Z,17.40
2018-02-15T00:41:59.335Z,17.40
2018-02-15T00:44:27.549Z,17.40
2018-02-15T00:46:55.787Z,17.40
2018-02-15T00:49:23.929Z,17.40
2018-02-15T00:51:52.073Z,17.30
2018-02-15T00:54:21.004Z,17.30
2018-02-15T00:56:49.253Z,17.30
2018-02-15T00:59:18.166Z,17.30
2018-02-15T01:01:46.335Z,17.30
2018-02-15T01:04:14.481Z,17.30
2018-02-15T01:06:43.429Z,17.30
2018-02-15T01:09:11.587Z,17.30
2018-02-15T01:11:39.762Z,17.30
2018-02-15T01:14:07.903Z,17.30
2018-02-15T01:16:36.065Z,17.30
2018-02-15T01:19:05.015Z,17.30
2018-02-15T01:21:33.196Z,17.30
2018-02-15T01:24:01.359Z,17.30
2018-02-15T01:26:29.505Z,17.30
2018-02-15T01:28:57.709Z,17.30
2018-02-15T01:31:25.930Z,17.30
2018-02-15T01:33:54.259Z,17.30
2018-02-15T01:36:22.412Z,17.30
2018-02-15T01:38:50.591Z,17.30
2018-02-15T01:41:18.755Z,17.30
2018-02-15T01:43:46.941Z,17.30
2018-02-15T01:46:15.203Z,17.30
2018-02-15T01:48:43.381Z,17.30
2018-02-15T01:51:11.522Z,17.30
2018-02-15T01:53:39.770Z,17.30
2018-02-15T01:56:08.734Z,17.20
2018-02-15T01:58:36.900Z,17.30
2018-02-15T02:01:05.121Z,17.30
2018-02-15T02:03:34.124Z,17.20
2018-02-15T02:06:02.322Z,17.20
2018-02-15T02:08:30.504Z,17.20
2018-02-15T02:10:58.707Z,17.20
2018-02-15T02:13:26.893Z,17.20
2018-02-15T02:15:55.185Z,17.20
2018-02-15T02:18:25.817Z,17.20
2018-02-15T02:20:54.812Z,17.20
2018-02-15T02:23:22.986Z,17.20
2018-02-15T02:25:51.906Z,17.20
2018-02-15T02:28:20.063Z,17.20
2018-02-15T02:30:48.247Z,17.20
2018-02-15T02:33:16.508Z,17.20
2018-02-15T02:35:44.718Z,17.20
2018-02-15T02:38:12.968Z,17.20
2018-02-15T02:40:41.137Z,17.20
2018-02-15T02:43:09.336Z,17.20
2018-02-15T02:45:37.539Z,17.20
2018-02-15T02:48:05.703Z,17.20
2018-02-15T02:50:33.866Z,17.30
2018-02-15T02:53:02.044Z,17.30
2018-02-15T02:55:30.257Z,17.30
2018-02-15T02:57:59.198Z,17.30
2018-02-15T03:00:27.450Z,17.30
2018-02-15T03:02:55.648Z,17.30
2018-02-15T03:05:23.927Z,17.30
2018-02-15T03:07:52.096Z,17.30
2018-02-15T03:10:20.266Z,17.30
2018-02-15T03:12:48.548Z,17.30
2018-02-15T03:15:16.886Z,17.30
2018-02-15T03:17:45.087Z,17.20
2018-02-15T03:20:13.237Z,17.20
2018-02-15T03:22:41.653Z,17.20
2018-02-15T03:25:09.852Z,17.20
2018-02-15T03:27:38.827Z,17.20
2018-02-15T03:30:07.000Z,17.20
2018-02-15T03:32:35.193Z,17.20
2018-02-15T03:35:04.107Z,17.20
2018-02-15T03:37:32.293Z,17.20
2018-02-15T03:40:00.483Z,17.20
2018-02-15T03:42:28.669Z,17.20
2018-02-15T03:44:56.877Z,17.20
2018-02-15T03:47:25.815Z,17.20
2018-02-15T03:49:53.986Z,17.10
2018-02-15T03:52:22.140Z,17.20
2018-02-15T03:54:51.350Z,17.20
2018-02-15T03:57:19.620Z,17.20
2018-02-15T03:59:47.781Z,17.20
2018-02-15T04:02:15.917Z,17.20
2018-02-15T04:04:44.090Z,17.20
2018-02-15T04:07:12.226Z,17.20
2018-02-15T04:09:40.385Z,17.20
2018-02-15T04:12:08.542Z,17.20
2018-02-15T04:14:36.694Z,17.20
2018-02-15T04:17:04.874Z,17.20
2018-02-15T04:19:34.379Z,17.30
2018-02-15T04:22:03.400Z,17.30
2018-02-15T04:24:31.653Z,17.30
2018-02-15T04:26:59.938Z,17.30
2018-02-15T04:29:28.110Z,17.30
2018-02-15T04:31:56.270Z,17.30
2018-02-15T04:34:25.250Z,17.20
2018-02-15T04:36:54.200Z,17.20
2018-02-15T04:39:22.390Z,17.20
2018-02-15T04:41:50.557Z,17.20
2018-02-15T04:44:18.732Z,17.20
2018-02-15T04:46:46.889Z,17.20
2018-02-15T04:49:15.069Z,17.10
2018-02-15T04:51:43.247Z,17.10
2018-02-15T04:54:11.483Z,17.20
2018-02-15T04:56:39.754Z,17.20
2018-02-15T04:59:08.012Z,17.10
2018-02-15T05:01:36.925Z,17.30
2018-02-15T05:04:05.098Z,17.30
2018-02-15T05:06:33.365Z,17.30
2018-02-15T05:09:01.529Z,17.40
2018-02-15T05:11:29.707Z,17.50
2018-02-15T05:13:57.881Z,17.50
2018-02-15T05:16:26.033Z,17.60
2018-02-15T05:18:54.323Z,17.60
2018-02-15T05:21:22.482Z,17.70
2018-02-15T05:23:51.424Z,17.70
2018-02-15T05:26:19.578Z,17.70
2018-02-15T05:28:47.886Z,17.70
2018-02-15T05:31:16.109Z,17.80
2018-02-15T05:33:44.269Z,17.80
2018-02-15T05:36:13.225Z,17.90
2018-02-15T05:38:41.397Z,17.90
2018-02-15T05:41:10.362Z,17.90
2018-02-15T05:43:38.526Z,17.90
2018-02-15T05:46:07.753Z,18.00
2018-02-15T05:48:35.906Z,17.90
2018-02-15T05:51:04.099Z,18.00
2018-02-15T05:53:32.460Z,18.00
2018-02-15T05:56:00.677Z,18.00
2018-02-15T05:58:28.865Z,17.90
2018-02-15T06:00:57.819Z,18.00
2018-02-15T06:03:25.975Z,18.00
2018-02-15T06:05:54.134Z,18.00
2018-02-15T06:08:22.306Z,18.00
2018-02-15T06:10:51.408Z,18.10
2018-02-15T06:13:19.561Z,18.10
2018-02-15T06:15:47.756Z,18.10
2018-02-15T06:18:15.958Z,18.00
2018-02-15T06:20:44.170Z,18.10
2018-02-15T06:23:13.136Z,18.10
2018-02-15T06:25:42.156Z,18.10
2018-02-15T06:28:10.394Z,18.10
2018-02-15T06:30:38.680Z,18.10
2018-02-15T06:33:06.871Z,18.10
2018-02-15T06:35:36.315Z,18.20
2018-02-15T06:38:04.621Z,18.20
2018-02-15T06:40:32.860Z,18.20
2018-02-15T06:43:01.033Z,18.20
2018-02-15T06:45:30.046Z,18.20
2018-02-15T06:47:58.241Z,18.20
2018-02-15T06:50:26.426Z,18.20
2018-02-15T06:52:55.394Z,18.20
2018-02-15T06:55:26.173Z,18.20
2018-02-15T06:57:55.176Z,18.20
2018-02-15T07:00:23.398Z,18.20
2018-02-15T07:02:51.593Z,18.20
2018-02-15T07:05:20.544Z,18.10
2018-02-15T07:07:49.580Z,18.10
2018-02-15T07:10:19.490Z,18.10
2018-02-15T07:12:47.654Z,18.10
2018-02-15T07:15:16.019Z,18.00
2018-02-15T07:17:44.208Z,18.00
2018-02-15T07:20:12.534Z,18.00
2018-02-15T07:22:41.649Z,18.00
2018-02-15T07:25:10.757Z,18.00
2018-02-15T07:27:39.057Z,18.00
2018-02-15T07:30:07.224Z,18.00
2018-02-15T07:32:36.205Z,18.10
2018-02-15T07:35:04.371Z,18.00
2018-02-15T07:37:32.608Z,18.10
2018-02-15T07:40:10.225Z,18.10
2018-02-15T07:42:39.401Z,18.10
2018-02-15T07:45:07.595Z,18.10
2018-02-15T07:47:35.862Z,18.20
2018-02-15T07:50:04.130Z,18.20
2018-02-15T07:52:32.387Z,18.20
2018-02-15T07:55:01.555Z,18.20
2018-02-15T07:57:30.600Z,18.20
2018-02-15T07:59:58.771Z,18.20
2018-02-15T08:02:26.927Z,18.20
2018-02-15T08:04:55.084Z,18.10
2018-02-15T08:07:24.074Z,18.20
2018-02-15T08:09:52.310Z,18.10
2018-02-15T08:12:20.485Z,18.10
2018-02-15T08:14:48.629Z,18.10
2018-02-15T08:17:22.235Z,18.10
2018-02-15T08:19:50.780Z,18.10
2018-02-15T08:22:19.876Z,18.10
2018-02-15T08:24:49.129Z,18.10
2018-02-15T08:27:18.639Z,18.10
2018-02-15T08:29:47.692Z,18.00
2018-02-15T08:32:16.335Z,18.00
2018-02-15T08:34:45.496Z,18.00
2018-02-15T08:37:14.409Z,18.00
2018-02-15T08:39:42.912Z,18.00
2018-02-15T08:42:11.256Z,18.00
2018-02-15T08:44:40.132Z,18.00
2018-02-15T08:47:08.384Z,18.00
2018-02-15T08:49:36.558Z,18.00
2018-02-15T08:52:04.909Z,18.00
2018-02-15T08:54:33.187Z,18.00
2018-02-15T08:57:02.113Z,18.00
2018-02-15T08:59:30.289Z,18.00
2018-02-15T09:01:58.462Z,18.00
2018-02-15T09:04:26.623Z,18.00
2018-02-15T09:06:54.845Z,18.10
2018-02-15T09:09:23.014Z,18.10
2018-02-15T09:11:51.212Z,18.10
2018-02-15T09:14:20.983Z,18.20
2018-02-15T09:16:49.248Z,18.20
2018-02-15T09:19:21.132Z,18.20
2018-02-15T09:21:49.292Z,18.20
2018-02-15T09:24:17.469Z,18.20
2018-02-15T09:26:45.729Z,18.20
2018-02-15T09:29:13.935Z,18.30
2018-02-15T09:31:42.117Z,18.30
2018-02-15T09:34:11.078Z,18.30
2018-02-15T09:36:40.762Z,18.30
2018-02-15T09:39:08.990Z,18.30
2018-02-15T09:41:37.174Z,18.30
2018-02-15T09:44:06.109Z,18.30
2018-02-15T09:46:34.364Z,18.30
2018-02-15T09:49:03.184Z,18.20
2018-02-15T09:51:31.741Z,18.20
2018-02-15T09:53:59.889Z,18.20
2018-02-15T09:56:28.046Z,18.20
2018-02-15T09:58:57.070Z,18.20
2018-02-15T10:01:25.308Z,18.20
2018-02-15T10:03:53.498Z,18.10
2018-02-15T10:06:21.777Z,18.10
2018-02-15T10:08:50.707Z,18.10
2018-02-15T10:11:18.866Z,18.10
2018-02-15T10:13:47.059Z,18.10
2018-02-15T10:16:15.386Z,18.10
2018-02-15T10:18:43.613Z,18.10
2018-02-15T10:21:11.820Z,18.10
2018-02-15T10:23:40.773Z,18.10
2018-02-15T10:26:08.939Z,18.10
2018-02-15T10:28:37.139Z,18.00
2018-02-15T10:31:05.316Z,18.00
2018-02-15T10:33:33.634Z,18.00
2018-02-15T10:36:01.826Z,18.00
2018-02-15T10:38:29.988Z,18.00
2018-02-15T10:40:58.153Z,18.00
2018-02-15T10:43:26.392Z,18.00
2018-02-15T10:45:54.613Z,18.00
2018-02-15T10:48:22.790Z,17.90
2018-02-15T10:50:51.040Z,17.90
2018-02-15T10:53:19.186Z,17.90
2018-02-15T10:55:47.343Z,17.90
2018-02-15T10:58:15.536Z,17.90
2018-02-15T11:00:49.177Z,18.00
2018-02-15T11:03:22.948Z,17.90
2018-02-15T11:05:51.878Z,17.90
2018-02-15T11:08:20.074Z,17.90
2018-02-15T11:10:49.612Z,17.90
2018-02-15T11:13:22.098Z,17.90
2018-02-15T11:15:54.052Z,17.90
2018-02-15T11:18:23.431Z,17.90
2018-02-15T11:20:54.946Z,17.80
2018-02-15T11:23:23.397Z,17.80
2018-02-15T11:25:52.398Z,17.80
2018-02-15T11:28:20.618Z,17.80
2018-02-15T11:30:59.551Z,17.80
2018-02-15T11:33:27.938Z,17.80
2018-02-15T11:35:59.842Z,17.80
2018-02-15T11:38:34.205Z,17.80
2018-02-15T11:41:04.562Z,17.80
2018-02-15T11:43:34.886Z,17.80
2018-02-15T11:46:06.436Z,17.80
2018-02-15T11:48:35.500Z,17.80
2018-02-15T11:51:04.928Z,17.80
2018-02-15T11:53:34.677Z,17.80
2018-02-15T11:56:04.741Z,17.80
2018-02-15T11:58:34.056Z,17.80
2018-02-15T12:01:02.283Z,17.80
2018-02-15T12:03:32.092Z,17.80
2018-02-15T12:06:05.318Z,17.80
2018-02-15T12:08:33.846Z,17.80
2018-02-15T12:11:02.040Z,17.80
2018-02-15T12:13:31.995Z,17.80
2018-02-15T12:16:01.034Z,17.80
2018-02-15T12:18:30.374Z,17.80
2018-02-15T12:20:58.603Z,17.80
2018-02-15T12:23:28.531Z,17.80
2018-02-15T12:25:57.414Z,17.80
2018-02-15T12:28:25.808Z,17.80
2018-02-15T12:30:54.963Z,17.90
2018-02-15T12:33:23.126Z,17.90
2018-02-15T12:35:51.381Z,17.90
2018-02-15T12:38:21.787Z,17.90
2018-02-15T12:40:51.123Z,17.90
2018-02-15T12:43:21.284Z,17.90
2018-02-15T12:45:50.466Z,17.90
2018-02-15T12:48:20.494Z,17.90
2018-02-15T12:50:50.585Z,17.90
2018-02-15T12:53:20.237Z,17.90
2018-02-15T12:55:52.568Z,17.90
2018-02-15T12:58:20.726Z,17.90
2018-02-15T13:00:57.338Z,17.90
2018-02-15T13:03:26.503Z,17.90
2018-02-15T13:05:56.592Z,17.90
2018-02-15T13:08:27.525Z,17.90
2018-02-15T13:10:56.904Z,17.90
2018-02-15T13:13:32.550Z,17.90
2018-02-15T13:16:19.839Z,17.90
2018-02-15T13:18:51.264Z,17.90
2018-02-15T13:21:23.175Z,17.90
2018-02-15T13:23:51.424Z,17.90
2018-02-15T13:26:20.002Z,17.90
2018-02-15T13:28:50.807Z,18.00
2018-02-15T13:31:21.552Z,17.90
2018-02-15T13:33:50.853Z,17.90
2018-02-15T13:36:22.451Z,17.90
2018-02-15T13:38:50.689Z,17.90
2018-02-15T13:41:19.720Z,17.90
2018-02-15T13:43:49.375Z,17.90
2018-02-15T13:46:17.607Z,17.90
2018-02-15T13:48:46.698Z,18.00
2018-02-15T13:51:15.836Z,18.00
2018-02-15T13:53:52.106Z,18.00
2018-02-15T13:56:21.030Z,18.00
2018-02-15T13:58:50.325Z,17.90
2018-02-15T14:01:22.437Z,18.00
2018-02-15T14:03:53.853Z,18.00
2018-02-15T14:06:23.253Z,18.00
2018-02-15T14:08:52.954Z,18.00
2018-02-15T14:11:21.133Z,18.00
2018-02-15T14:13:49.266Z,18.00
2018-02-15T14:16:18.221Z,18.00
2018-02-15T14:18:46.427Z,18.00
2018-02-15T14:21:16.889Z,18.00
2018-02-15T14:23:49.050Z,18.00
2018-02-15T14:26:18.688Z,18.00
2018-02-15T14:28:47.949Z,18.00
2018-02-15T14:31:17.149Z,18.10
2018-02-15T14:33:46.256Z,18.10
2018-02-15T14:36:15.192Z,18.00
2018-02-15T14:38:46.469Z,18.00
2018-02-15T14:41:20.211Z,18.00
2018-02-15T14:43:53.168Z,18.00
2018-02-15T14:46:21.469Z,18.00
2018-02-15T14:48:50.508Z,18.00
2018-02-15T14:51:20.468Z,18.10
2018-02-15T14:53:49.003Z,18.10
2018-02-15T14:56:22.120Z,18.10
2018-02-15T14:58:50.385Z,18.10
2018-02-15T15:01:40.607Z,18.10
2018-02-15T15:04:08.824Z,18.10
2018-02-15T15:06:37.338Z,18.10
2018-02-15T15:09:07.624Z,18.10
2018-02-15T15:11:35.975Z,18.10
2018-02-15T15:14:07.607Z,18.10
2018-02-15T15:16:37.055Z,18.10
2018-02-15T15:19:06.975Z,18.10
2018-02-15T15:21:40.191Z,18.10
2018-02-15T15:24:16.243Z,18.10
2018-02-15T15:26:46.513Z,18.10
2018-02-15T15:29:17.537Z,18.10
2018-02-15T15:31:46.998Z,18.10
2018-02-15T15:34:17.190Z,18.10
2018-02-15T15:36:50.187Z,18.10
2018-02-15T15:39:23.745Z,18.10
2018-02-15T15:41:52.096Z,18.10
2018-02-15T15:44:28.873Z,18.00
2018-02-15T15:47:04.020Z,18.00
2018-02-15T15:49:42.918Z,18.00
2018-02-15T15:52:29.537Z,18.00
2018-02-15T15:55:03.073Z,18.00
2018-02-15T16:00:11.468Z,18.00
2018-02-15T16:02:41.164Z,18.00
2018-02-15T16:17:13.030Z,18.10
2018-02-15T16:19:43.890Z,18.00
2018-02-15T16:22:12.983Z,18.00
2018-02-15T16:24:43.466Z,18.00
2018-02-15T16:30:34.396Z,18.00
2018-02-15T16:36:14.472Z,17.90
2018-02-15T16:38:48.623Z,18.00
2018-02-15T16:41:29.272Z,18.00
2018-02-15T16:44:01.791Z,18.00
2018-02-15T16:49:33.412Z,18.00
2018-02-15T16:52:04.698Z,18.10
2018-02-15T16:55:23.751Z,18.10
2018-02-15T16:57:52.649Z,18.10
2018-02-15T17:00:25.043Z,18.10
2018-02-15T17:03:03.548Z,18.10
2018-02-15T17:05:38.615Z,18.10
2018-02-15T17:08:36.322Z,18.10
2018-02-15T17:11:11.789Z,18.20
2018-02-15T17:14:09.593Z,18.20
2018-02-15T17:20:27.290Z,18.20
2018-02-15T17:23:03.718Z,18.10
2018-02-15T17:28:26.333Z,18.10
2018-02-15T17:30:56.434Z,18.10
2018-02-15T17:33:24.622Z,18.10
2018-02-15T17:35:52.895Z,18.10
2018-02-15T17:38:21.856Z,18.10
2018-02-15T17:51:59.710Z,18.10
2018-02-15T17:54:27.858Z,17.80
2018-02-15T17:56:57.552Z,17.90
2018-02-15T17:59:26.195Z,17.90
2018-02-15T18:01:54.534Z,18.00
2018-02-15T18:04:22.822Z,18.00
2018-02-15T18:06:51.135Z,18.00
2018-02-15T18:09:22.954Z,18.10
2018-02-15T18:11:52.623Z,18.10
2018-02-15T18:14:21.937Z,18.10
2018-02-15T18:16:55.196Z,18.10
2018-02-15T18:19:24.985Z,18.10
2018-02-15T18:21:54.136Z,18.10
2018-02-15T18:24:23.060Z,18.10
2018-02-15T18:26:54.228Z,18.10
2018-02-15T18:29:27.579Z,18.10
2018-02-15T18:32:00.089Z,18.10
2018-02-15T18:38:08.883Z,18.20
2018-02-15T18:40:44.644Z,18.20
2018-02-15T18:43:14.425Z,18.10
2018-02-15T18:45:44.207Z,18.10
2018-02-15T18:48:12.564Z,18.20
2018-02-15T18:50:42.405Z,18.10
2018-02-15T18:53:10.769Z,18.10
2018-02-15T18:55:39.833Z,18.20
2018-02-15T18:58:10.717Z,18.20
2018-02-15T19:00:40.384Z,18.20
2018-02-15T19:03:10.054Z,18.20
2018-02-15T19:05:40.738Z,18.20
2018-02-15T19:08:09.934Z,18.30
2018-02-15T19:10:38.251Z,18.30
2018-02-15T19:13:06.566Z,18.30
2018-02-15T19:15:35.482Z,18.30
2018-02-15T19:18:04.474Z,18.40
2018-02-15T19:20:37.952Z,18.40
2018-02-15T19:23:08.247Z,18.40
2018-02-15T19:25:37.501Z,18.40
2018-02-15T19:28:07.360Z,18.40
2018-02-15T19:30:35.984Z,18.40
2018-02-15T19:33:04.548Z,18.40
2018-02-15T19:35:32.735Z,18.40
2018-02-15T19:38:00.955Z,18.40
2018-02-15T19:40:29.195Z,18.40
2018-02-15T19:43:07.578Z,18.40
2018-02-15T19:45:37.228Z,18.40
2018-02-15T19:48:06.113Z,18.40
2018-02-15T19:50:34.319Z,18.40
2018-02-15T19:53:02.604Z,18.40
2018-02-15T19:55:36.130Z,18.40
2018-02-15T19:58:05.648Z,18.50
2018-02-15T20:00:34.687Z,18.40
2018-02-15T20:03:04.467Z,18.40
2018-02-15T20:05:34.217Z,18.40
2018-02-15T20:08:02.498Z,18.40
2018-02-15T20:10:32.174Z,18.40
2018-02-15T20:13:04.283Z,18.40
2018-02-15T20:15:38.835Z,18.40
2018-02-15T20:18:08.773Z,18.40
2018-02-15T20:20:40.756Z,18.40
2018-02-15T20:23:09.974Z,18.30
2018-02-15T20:25:40.016Z,18.30
2018-02-15T20:28:15.710Z,18.30
2018-02-15T20:30:46.880Z,18.30
2018-02-15T20:33:27.997Z,18.30
2018-02-15T20:36:00.119Z,18.30
2018-02-15T20:38:34.455Z,18.30
2018-02-15T20:44:02.166Z,18.30
2018-02-15T20:46:30.440Z,18.20
2018-02-15T20:48:58.788Z,18.20
2018-02-15T20:51:36.926Z,18.20
2018-02-15T20:54:11.396Z,18.20
2018-02-15T20:56:41.481Z,18.20
2018-02-15T21:02:13.553Z,18.20
2018-02-15T21:04:44.435Z,18.10
2018-02-15T21:07:23.767Z,18.00
2018-02-15T21:09:53.476Z,17.90
2018-02-15T21:12:21.917Z,17.90
2018-02-15T21:14:50.235Z,17.80
2018-02-15T21:17:25.556Z,17.70
2018-02-15T21:19:54.609Z,17.60
2018-02-15T21:22:23.788Z,17.60
2018-02-15T21:24:52.976Z,17.60
2018-02-15T21:27:22.032Z,17.60
2018-02-15T21:29:50.628Z,17.50
2018-02-15T21:32:18.963Z,17.50
2018-02-15T21:34:47.311Z,17.50
2018-02-15T21:37:26.961Z,17.50
2018-02-15T21:39:56.072Z,17.50
2018-02-15T21:42:24.568Z,17.50
2018-02-15T21:45:00.274Z,17.50
2018-02-15T21:47:29.263Z,17.60
2018-02-15T21:49:57.501Z,17.60
2018-02-15T21:52:25.702Z,17.60
2018-02-15T21:54:56.309Z,17.60
2018-02-15T21:57:24.749Z,17.60
2018-02-15T21:59:53.147Z,17.60
2018-02-15T22:02:21.386Z,17.60
2018-02-15T22:04:49.738Z,17.60
2018-02-15T22:09:53.257Z,17.60
2018-02-15T22:12:22.358Z,17.50
2018-02-15T22:14:50.621Z,17.50
2018-02-15T22:17:23.802Z,17.50
2018-02-15T22:19:52.872Z,17.50
2018-02-15T22:22:21.036Z,17.50
2018-02-15T22:24:49.237Z,17.50
2018-02-15T22:27:17.463Z,17.50
2018-02-15T22:29:45.831Z,17.50
2018-02-15T22:32:14.073Z,17.40
2018-02-15T22:34:43.112Z,17.50
2018-02-15T22:37:16.772Z,17.50
2018-02-15T22:39:45.905Z,17.50
2018-02-15T22:42:14.574Z,17.50
2018-02-15T22:44:44.204Z,17.50
2018-02-15T22:47:13.005Z,17.50
2018-02-15T22:49:42.196Z,17.50
2018-02-15T22:52:11.396Z,17.50
2018-02-15T22:54:41.458Z,17.50
2018-02-15T22:57:16.222Z,17.50
2018-02-15T22:59:45.766Z,17.50
2018-02-15T23:02:15.170Z,17.50
2018-02-15T23:04:46.020Z,17.50
2018-02-15T23:07:17.754Z,17.40
2018-02-15T23:09:47.098Z,17.40
2018-02-15T23:12:16.244Z,17.40
2018-02-15T23:14:44.535Z,17.40
2018-02-15T23:17:13.187Z,17.40
2018-02-15T23:19:42.666Z,17.40
2018-02-15T23:22:10.886Z,17.40
2018-02-15T23:24:40.045Z,17.40
2018-02-15T23:27:08.235Z,17.40
2018-02-15T23:29:38.249Z,17.40
2018-02-15T23:32:07.015Z,17.40
2018-02-15T23:34:37.272Z,17.40
2018-02-15T23:37:05.554Z,17.40
2018-02-15T23:39:34.772Z,17.40
2018-02-15T23:42:03.091Z,17.40
2018-02-15T23:44:31.392Z,17.30
2018-02-15T23:46:59.630Z,17.30
2018-02-15T23:49:28.938Z,17.30
2018-02-15T23:51:57.140Z,17.30
2018-02-15T23:54:26.351Z,17.30
2018-02-15T23:56:55.004Z,17.30
2018-02-15T23:59:23.985Z,17.30
